createdAt,value
2018-07-03T00:01:53.526Z,90.60
2018-07-03T00:04:22.356Z,90.60
2018-07-03T00:06:51.186Z,92.30
2018-07-03T00:09:19.975Z,91.60
2018-07-03T00:11:48.731Z,91.90
2018-07-03T00:14:17.507Z,92.80
2018-07-03T00:16:51.782Z,92.80
2018-07-03T00:19:20.663Z,93.10
2018-07-03T00:21:49.552Z,94.10
2018-07-03T00:24:18.342Z,93.70
2018-07-03T00:26:47.074Z,94.40
2018-07-03T00:31:44.879Z,94.90
2018-07-03T00:34:13.681Z,94.90
2018-07-03T00:36:42.574Z,95.10
2018-07-03T00:39:11.361Z,95.30
2018-07-03T00:41:40.125Z,95.40
2018-07-03T00:44:08.914Z,96.10
2018-07-03T00:46:37.662Z,96.20
2018-07-03T00:49:06.433Z,96.30
2018-07-03T00:51:35.175Z,96.70
2018-07-03T00:54:03.971Z,96.70
2018-07-03T00:56:32.859Z,97.20
2018-07-03T00:59:01.750Z,97.40
2018-07-03T01:01:30.548Z,97.40
2018-07-03T01:03:59.330Z,98.00
2018-07-03T01:06:28.342Z,98.30
2018-07-03T01:08:57.135Z,98.70
2018-07-03T01:11:25.931Z,98.20
2018-07-03T01:13:55.414Z,98.30
2018-07-03T01:16:24.195Z,98.20
2018-07-03T01:18:53.096Z,98.50
2018-07-03T01:21:21.998Z,98.30
2018-07-03T01:23:50.762Z,98.80
2018-07-03T01:26:19.563Z,98.70
2018-07-03T01:28:48.330Z,98.70
2018-07-03T01:31:17.186Z,98.70
2018-07-03T01:33:45.927Z,99.90
2018-07-03T01:36:14.902Z,99.10
2018-07-03T01:38:43.826Z,99.80
2018-07-03T01:41:12.650Z,99.90
2018-07-03T01:43:41.396Z,99.90
2018-07-03T01:46:10.194Z,99.90
2018-07-03T01:48:38.991Z,99.90
2018-07-03T01:51:07.798Z,99.90
2018-07-03T01:53:36.574Z,99.90
2018-07-03T01:56:05.578Z,99.90
2018-07-03T01:58:34.359Z,99.90
2018-07-03T02:01:03.202Z,99.90
2018-07-03T02:03:31.986Z,99.90
2018-07-03T02:06:00.755Z,99.90
2018-07-03T02:08:29.529Z,99.90
2018-07-03T02:10:58.318Z,99.90
2018-07-03T02:13:27.066Z,99.90
2018-07-03T02:15:55.882Z,99.90
2018-07-03T02:18:24.704Z,99.90
2018-07-03T02:20:53.473Z,99.90
2018-07-03T02:23:22.275Z,99.90
2018-07-03T02:25:51.038Z,99.90
2018-07-03T02:28:19.823Z,99.90
2018-07-03T02:30:48.622Z,99.90
2018-07-03T02:33:17.402Z,99.90
2018-07-03T02:35:46.187Z,99.90
2018-07-03T02:38:14.971Z,99.90
2018-07-03T02:40:43.847Z,99.90
2018-07-03T02:43:12.671Z,99.90
2018-07-03T02:45:41.565Z,99.90
2018-07-03T02:48:10.325Z,99.90
2018-07-03T02:50:39.124Z,99.90
2018-07-03T02:53:07.991Z,99.90
2018-07-03T02:55:36.806Z,99.90
2018-07-03T02:58:05.573Z,99.90
2018-07-03T03:00:34.370Z,99.90
2018-07-03T03:03:03.175Z,99.90
2018-07-03T03:05:31.950Z,99.90
2018-07-03T03:08:00.759Z,99.90
2018-07-03T03:10:29.640Z,99.90
2018-07-03T03:12:58.411Z,99.90
2018-07-03T03:15:27.214Z,99.90
2018-07-03T03:17:56.003Z,99.90
2018-07-03T03:20:24.914Z,99.90
2018-07-03T03:22:53.688Z,99.90
2018-07-03T03:25:22.459Z,99.90
2018-07-03T03:27:51.194Z,99.90
2018-07-03T03:30:20.063Z,99.90
2018-07-03T03:32:48.848Z,99.90
2018-07-03T03:35:17.696Z,99.90
2018-07-03T03:37:46.507Z,99.90
2018-07-03T03:40:15.261Z,99.90
2018-07-03T03:42:44.053Z,99.90
2018-07-03T03:45:13.192Z,99.90
2018-07-03T03:47:42.114Z,99.90
2018-07-03T03:50:10.925Z,99.90
2018-07-03T03:52:39.819Z,99.90
2018-07-03T03:55:08.554Z,99.90
2018-07-03T03:57:37.379Z,99.90
2018-07-03T04:00:07.669Z,99.90
2018-07-03T04:02:36.463Z,99.90
2018-07-03T04:05:05.231Z,99.90
2018-07-03T04:07:34.003Z,99.90
2018-07-03T04:10:02.968Z,99.90
2018-07-03T04:12:31.926Z,99.90
2018-07-03T04:15:00.766Z,99.90
2018-07-03T04:17:29.534Z,99.90
2018-07-03T04:19:58.395Z,99.90
2018-07-03T04:22:27.283Z,99.90
2018-07-03T04:24:56.038Z,99.90
2018-07-03T04:27:24.852Z,99.90
2018-07-03T04:29:53.622Z,99.90
2018-07-03T04:32:22.395Z,99.90
2018-07-03T04:34:57.509Z,99.90
2018-07-03T04:37:26.363Z,99.90
2018-07-03T04:39:55.247Z,99.90
2018-07-03T04:42:24.046Z,99.90
2018-07-03T04:44:52.838Z,99.90
2018-07-03T04:47:21.727Z,99.90
2018-07-03T04:49:50.521Z,99.90
2018-07-03T04:52:19.413Z,99.90
2018-07-03T04:54:48.258Z,99.90
2018-07-03T04:57:17.031Z,99.90
2018-07-03T04:59:46.091Z,99.90
2018-07-03T05:02:15.089Z,99.90
2018-07-03T05:04:44.069Z,99.90
2018-07-03T05:07:12.855Z,99.90
2018-07-03T05:09:41.616Z,99.90
2018-07-03T05:12:10.394Z,99.90
2018-07-03T05:14:39.222Z,99.90
2018-07-03T05:17:08.053Z,99.90
2018-07-03T05:19:36.833Z,99.90
2018-07-03T05:22:05.962Z,99.90
2018-07-03T05:24:34.719Z,99.90
2018-07-03T05:27:03.590Z,99.90
2018-07-03T05:29:32.337Z,99.90
2018-07-03T05:32:01.143Z,99.90
2018-07-03T05:34:29.894Z,99.90
2018-07-03T05:36:58.680Z,99.90
2018-07-03T05:39:27.411Z,99.90
2018-07-03T05:41:56.216Z,99.90
2018-07-03T05:44:25.050Z,99.90
2018-07-03T05:46:53.771Z,99.90
2018-07-03T05:49:22.601Z,99.90
2018-07-03T05:51:51.351Z,99.90
2018-07-03T05:54:20.134Z,99.90
2018-07-03T05:56:48.951Z,99.90
2018-07-03T05:59:17.942Z,99.90
2018-07-03T06:01:46.730Z,99.90
2018-07-03T06:04:15.623Z,99.90
2018-07-03T06:06:44.390Z,99.90
2018-07-03T06:09:13.217Z,99.90
2018-07-03T06:11:41.975Z,99.90
2018-07-03T06:14:10.905Z,99.30
2018-07-03T06:16:39.755Z,98.70
2018-07-03T06:19:09.410Z,98.30
2018-07-03T06:21:38.196Z,97.70
2018-07-03T06:24:06.999Z,99.60
2018-07-03T06:29:04.453Z,97.10
2018-07-03T06:31:33.059Z,96.60
2018-07-03T06:34:02.678Z,95.70
2018-07-03T06:36:31.505Z,95.40
2018-07-03T06:39:00.348Z,94.10
2018-07-03T06:41:29.105Z,94.40
2018-07-03T06:43:57.923Z,93.60
2018-07-03T06:46:26.760Z,93.00
2018-07-03T06:48:55.519Z,92.40
2018-07-03T06:51:24.386Z,91.40
2018-07-03T06:53:53.186Z,91.90
2018-07-03T06:56:21.982Z,86.60
2018-07-03T06:58:50.779Z,87.40
2018-07-03T07:01:19.551Z,88.70
2018-07-03T07:03:48.331Z,88.20
2018-07-03T07:06:17.136Z,87.60
2018-07-03T07:08:46.042Z,82.40
2018-07-03T07:11:14.860Z,80.10
2018-07-03T07:13:43.947Z,80.50
2018-07-03T07:16:12.803Z,77.50
2018-07-03T07:18:41.639Z,76.40
2018-07-03T07:21:10.410Z,76.50
2018-07-03T07:23:39.268Z,77.70
2018-07-03T07:26:08.027Z,76.40
2018-07-03T07:28:37.103Z,75.60
2018-07-03T07:31:06.047Z,75.20
2018-07-03T07:33:34.824Z,72.90
2018-07-03T07:36:03.606Z,70.90
2018-07-03T07:38:32.401Z,71.20
2018-07-03T07:41:01.226Z,69.90
2018-07-03T07:43:29.989Z,68.40
2018-07-03T07:45:58.802Z,66.40
2018-07-03T07:48:27.598Z,66.70
2018-07-03T07:50:56.439Z,66.40
2018-07-03T07:53:25.206Z,66.90
2018-07-03T07:55:53.986Z,66.50
2018-07-03T07:58:22.836Z,65.00
2018-07-03T08:00:51.650Z,64.40
2018-07-03T08:03:20.367Z,63.30
2018-07-03T08:05:49.154Z,63.20
2018-07-03T08:08:17.911Z,61.50
2018-07-03T08:10:46.784Z,59.30
2018-07-03T08:13:15.586Z,58.20
2018-07-03T08:15:44.474Z,57.10
2018-07-03T08:18:13.351Z,57.50
2018-07-03T08:20:42.808Z,59.50
2018-07-03T08:23:11.751Z,55.60
2018-07-03T08:25:40.570Z,55.60
2018-07-03T08:28:09.326Z,56.40
2018-07-03T08:30:38.112Z,56.20
2018-07-03T08:33:07.734Z,56.20
2018-07-03T08:35:36.516Z,56.30
2018-07-03T08:38:05.279Z,56.20
2018-07-03T08:40:34.118Z,56.20
2018-07-03T08:43:02.867Z,55.70
2018-07-03T08:45:31.658Z,56.20
2018-07-03T08:48:00.420Z,55.20
2018-07-03T08:52:57.664Z,56.40
2018-07-03T08:55:26.519Z,55.80
2018-07-03T08:57:55.457Z,55.20
2018-07-03T09:00:24.294Z,54.20
2018-07-03T09:02:53.079Z,54.60
2018-07-03T09:05:21.882Z,55.50
2018-07-03T09:07:50.640Z,55.40
2018-07-03T09:10:20.071Z,55.50
2018-07-03T09:12:48.845Z,55.30
2018-07-03T09:15:17.631Z,54.90
2018-07-03T09:17:46.471Z,54.90
2018-07-03T09:20:15.239Z,54.30
2018-07-03T09:22:44.210Z,55.00
2018-07-03T09:25:13.015Z,55.20
2018-07-03T09:27:41.902Z,55.80
2018-07-03T09:30:10.812Z,54.50
2018-07-03T09:32:39.594Z,54.00
2018-07-03T09:35:08.616Z,54.30
2018-07-03T09:37:37.374Z,54.20
2018-07-03T09:40:06.182Z,53.60
2018-07-03T09:42:35.038Z,53.90
2018-07-03T09:45:04.351Z,54.10
2018-07-03T09:47:33.178Z,53.80
2018-07-03T09:50:01.949Z,51.80
2018-07-03T09:52:30.770Z,52.10
2018-07-03T09:54:59.658Z,52.10
2018-07-03T09:57:28.502Z,51.90
2018-07-03T09:59:57.389Z,51.80
2018-07-03T10:02:26.285Z,52.60
2018-07-03T10:04:55.039Z,52.00
2018-07-03T10:09:52.318Z,51.60
2018-07-03T10:12:21.115Z,51.30
2018-07-03T10:14:49.917Z,51.00
2018-07-03T10:17:18.696Z,50.40
2018-07-03T10:19:47.503Z,50.30
2018-07-03T10:22:16.294Z,50.20
2018-07-03T10:24:45.083Z,50.70
2018-07-03T10:27:13.860Z,50.80
2018-07-03T10:29:42.652Z,49.50
2018-07-03T10:32:11.456Z,49.70
2018-07-03T10:34:40.215Z,48.90
2018-07-03T10:37:09.027Z,49.90
2018-07-03T10:39:37.787Z,48.90
2018-07-03T10:42:06.575Z,47.80
2018-07-03T10:44:35.328Z,47.80
2018-07-03T10:47:04.102Z,47.60
2018-07-03T10:49:32.866Z,48.90
2018-07-03T10:52:01.655Z,47.40
2018-07-03T10:54:30.623Z,47.50
2018-07-03T10:56:59.439Z,46.80
2018-07-03T10:59:28.333Z,45.40
2018-07-03T11:01:57.634Z,45.30
2018-07-03T11:04:26.535Z,44.90
2018-07-03T11:06:55.373Z,45.00
2018-07-03T11:09:24.147Z,45.40
2018-07-03T11:11:52.922Z,45.20
2018-07-03T11:14:21.675Z,44.90
2018-07-03T11:16:50.471Z,43.90
2018-07-03T11:19:19.264Z,43.40
2018-07-03T11:21:48.354Z,42.30
2018-07-03T11:24:17.445Z,42.50
2018-07-03T11:26:46.244Z,41.60
2018-07-03T11:29:15.901Z,40.60
2018-07-03T11:31:44.667Z,39.60
2018-07-03T11:34:13.427Z,39.90
2018-07-03T11:36:42.225Z,39.50
2018-07-03T11:39:11.098Z,39.80
2018-07-03T11:44:08.495Z,38.90
2018-07-03T11:46:37.432Z,38.50
2018-07-03T11:49:06.374Z,39.10
2018-07-03T11:51:35.131Z,39.20
2018-07-03T11:54:03.983Z,38.50
2018-07-03T11:56:32.842Z,38.80
2018-07-03T11:59:01.747Z,38.00
2018-07-03T12:01:30.572Z,39.10
2018-07-03T12:03:59.295Z,39.20
2018-07-03T12:08:57.265Z,38.10
2018-07-03T12:11:26.022Z,38.40
2018-07-03T12:13:54.758Z,36.60
2018-07-03T12:16:23.613Z,35.80
2018-07-03T12:18:58.463Z,32.50
2018-07-03T12:21:27.836Z,31.50
2018-07-03T12:23:57.331Z,30.00
2018-07-03T12:26:26.157Z,28.60
2018-07-03T12:28:54.950Z,27.10
2018-07-03T12:31:23.686Z,26.60
2018-07-03T12:33:52.481Z,26.30
2018-07-03T12:36:21.263Z,26.00
2018-07-03T12:38:50.092Z,25.80
2018-07-03T12:41:18.877Z,26.10
2018-07-03T12:43:47.718Z,25.50
2018-07-03T12:46:16.483Z,25.10
2018-07-03T12:48:45.276Z,25.10
2018-07-03T12:51:14.027Z,25.00
2018-07-03T12:53:42.881Z,22.90
2018-07-03T12:56:11.667Z,22.70
2018-07-03T12:58:40.565Z,23.00
2018-07-03T13:01:09.344Z,22.90
2018-07-03T13:03:38.142Z,23.10
2018-07-03T13:06:06.974Z,22.70
2018-07-03T13:08:35.755Z,22.10
2018-07-03T13:11:04.606Z,22.30
2018-07-03T13:13:33.384Z,22.80
2018-07-03T13:16:02.166Z,22.30
2018-07-03T13:18:31.083Z,22.30
2018-07-03T13:20:59.857Z,22.70
2018-07-03T13:26:03.820Z,22.80
2018-07-03T13:28:32.606Z,22.50
2018-07-03T13:31:01.370Z,22.30
2018-07-03T13:33:30.265Z,22.60
2018-07-03T13:35:59.063Z,22.60
2018-07-03T13:38:27.858Z,22.60
2018-07-03T13:40:56.598Z,23.60
2018-07-03T13:43:25.688Z,23.90
2018-07-03T13:45:54.438Z,23.50
2018-07-03T13:48:23.247Z,24.00
2018-07-03T13:50:52.090Z,23.10
2018-07-03T13:53:20.991Z,22.70
2018-07-03T13:55:49.746Z,23.20
2018-07-03T13:58:18.571Z,23.00
2018-07-03T14:00:47.459Z,23.40
2018-07-03T14:03:16.217Z,23.70
2018-07-03T14:05:45.114Z,24.00
2018-07-03T14:08:13.977Z,23.50
2018-07-03T14:10:42.847Z,22.80
2018-07-03T14:13:11.600Z,22.70
2018-07-03T14:15:40.499Z,22.40
2018-07-03T14:18:09.275Z,22.90
2018-07-03T14:20:38.054Z,23.20
2018-07-03T14:23:06.838Z,23.40
2018-07-03T14:25:35.638Z,23.40
2018-07-03T14:28:04.604Z,23.70
2018-07-03T14:30:33.406Z,24.90
2018-07-03T14:33:02.232Z,24.40
2018-07-03T14:35:31.018Z,22.20
2018-07-03T14:37:59.811Z,22.20
2018-07-03T14:40:28.612Z,22.30
2018-07-03T14:42:57.369Z,22.50
2018-07-03T14:45:26.163Z,22.40
2018-07-03T14:47:55.012Z,22.70
2018-07-03T14:50:23.786Z,23.30
2018-07-03T14:52:52.647Z,23.30
2018-07-03T14:55:21.555Z,23.50
2018-07-03T14:57:50.479Z,23.40
2018-07-03T15:00:19.255Z,23.30
2018-07-03T15:02:48.009Z,23.20
2018-07-03T15:05:17.049Z,22.70
2018-07-03T15:07:45.781Z,22.90
2018-07-03T15:10:14.581Z,22.80
2018-07-03T15:12:43.364Z,23.10
2018-07-03T15:15:12.251Z,22.70
2018-07-03T15:17:41.023Z,23.30
2018-07-03T15:20:09.847Z,23.00
2018-07-03T15:22:38.734Z,23.70
2018-07-03T15:25:07.639Z,23.50
2018-07-03T15:27:36.518Z,23.70
2018-07-03T15:30:05.816Z,23.60
2018-07-03T15:32:34.587Z,24.40
2018-07-03T15:35:03.371Z,24.20
2018-07-03T15:37:32.175Z,23.70
2018-07-03T15:40:00.959Z,23.70
2018-07-03T15:42:29.704Z,23.70
2018-07-03T15:45:06.451Z,23.60
2018-07-03T15:47:35.271Z,24.00
2018-07-03T15:50:04.829Z,23.80
2018-07-03T15:52:33.618Z,24.10
2018-07-03T15:55:02.522Z,23.50
2018-07-03T15:57:31.294Z,23.80
2018-07-03T16:00:00.102Z,23.50
2018-07-03T16:02:28.958Z,23.60
2018-07-03T16:05:10.778Z,24.50
2018-07-03T16:07:51.619Z,24.50
2018-07-03T16:10:20.408Z,24.10
2018-07-03T16:12:49.227Z,24.10
2018-07-03T16:15:18.132Z,24.20
2018-07-03T16:17:46.952Z,24.50
2018-07-03T16:20:21.387Z,23.30
2018-07-03T16:22:50.168Z,24.00
2018-07-03T16:25:19.061Z,23.60
2018-07-03T16:27:47.797Z,23.70
2018-07-03T16:30:16.667Z,24.10
2018-07-03T16:32:45.420Z,24.70
2018-07-03T16:35:14.279Z,25.00
2018-07-03T16:37:43.058Z,25.30
2018-07-03T16:40:11.860Z,24.90
2018-07-03T16:42:40.742Z,25.40
2018-07-03T16:45:09.507Z,25.20
2018-07-03T16:47:38.297Z,25.20
2018-07-03T16:52:35.671Z,24.70
2018-07-03T16:55:04.666Z,24.60
2018-07-03T17:00:02.167Z,24.60
2018-07-03T17:02:31.091Z,24.40
2018-07-03T17:04:59.889Z,23.80
2018-07-03T17:07:28.739Z,23.60
2018-07-03T17:09:57.597Z,23.40
2018-07-03T17:12:26.377Z,23.40
2018-07-03T17:14:55.250Z,23.70
2018-07-03T17:17:24.124Z,24.60
2018-07-03T17:19:52.962Z,24.80
2018-07-03T17:22:21.783Z,24.00
2018-07-03T17:24:50.593Z,24.10
2018-07-03T17:27:19.402Z,24.20
2018-07-03T17:29:48.179Z,24.10
2018-07-03T17:32:16.956Z,24.30
2018-07-03T17:34:45.731Z,24.50
2018-07-03T17:37:14.519Z,24.60
2018-07-03T17:39:54.717Z,24.80
2018-07-03T17:42:35.106Z,25.00
2018-07-03T17:45:41.267Z,25.20
2018-07-03T17:48:11.277Z,24.70
2018-07-03T17:50:40.202Z,24.60
2018-07-03T17:53:09.210Z,24.80
2018-07-03T17:55:38.321Z,24.60
2018-07-03T17:58:07.397Z,24.70
2018-07-03T18:00:36.147Z,24.80
2018-07-03T18:03:05.099Z,24.60
2018-07-03T18:05:33.913Z,24.70
2018-07-03T18:08:02.667Z,25.30
2018-07-03T18:10:31.425Z,25.20
2018-07-03T18:13:00.209Z,25.40
2018-07-03T18:15:28.979Z,25.10
2018-07-03T18:17:58.231Z,25.10
2018-07-03T18:20:27.121Z,25.60
2018-07-03T18:22:56.115Z,25.80
2018-07-03T18:25:24.928Z,25.90
2018-07-03T18:27:53.707Z,26.10
2018-07-03T18:30:22.450Z,26.30
2018-07-03T18:32:51.320Z,26.60
2018-07-03T18:35:20.084Z,26.80
2018-07-03T18:37:48.890Z,26.50
2018-07-03T18:40:17.782Z,26.80
2018-07-03T18:45:15.596Z,26.80
2018-07-03T18:47:44.396Z,27.60
2018-07-03T18:50:13.268Z,27.30
2018-07-03T18:52:42.140Z,27.80
2018-07-03T18:55:11.240Z,28.40
2018-07-03T18:57:40.549Z,28.80
2018-07-03T19:00:09.302Z,29.00
2018-07-03T19:02:38.117Z,30.00
2018-07-03T19:05:06.887Z,30.20
2018-07-03T19:07:35.698Z,31.00
2018-07-03T19:10:04.483Z,31.80
2018-07-03T19:12:33.488Z,32.40
2018-07-03T19:15:02.231Z,32.80
2018-07-03T19:17:31.018Z,33.30
2018-07-03T19:22:28.556Z,34.00
2018-07-03T19:24:57.328Z,34.60
2018-07-03T19:27:26.103Z,35.00
2018-07-03T19:29:54.879Z,35.40
2018-07-03T19:32:23.791Z,35.60
2018-07-03T19:34:52.600Z,36.10
2018-07-03T19:37:22.514Z,36.70
2018-07-03T19:39:51.279Z,36.90
2018-07-03T19:42:20.136Z,37.40
2018-07-03T19:44:48.834Z,37.90
2018-07-03T19:47:17.755Z,38.40
2018-07-03T19:49:46.503Z,38.90
2018-07-03T19:52:15.425Z,39.10
2018-07-03T19:54:44.182Z,39.40
2018-07-03T19:57:12.939Z,39.80
2018-07-03T19:59:41.746Z,40.10
2018-07-03T20:02:10.619Z,40.70
2018-07-03T20:04:39.410Z,40.70
2018-07-03T20:07:08.167Z,41.10
2018-07-03T20:09:36.937Z,41.30
2018-07-03T20:12:05.706Z,41.40
2018-07-03T20:14:34.534Z,41.40
2018-07-03T20:17:03.335Z,41.80
2018-07-03T20:19:32.367Z,41.90
2018-07-03T20:22:01.124Z,42.00
2018-07-03T20:24:30.013Z,42.00
2018-07-03T20:26:58.767Z,42.50
2018-07-03T20:29:27.681Z,42.60
2018-07-03T20:31:56.471Z,42.70
2018-07-03T20:34:25.513Z,43.10
2018-07-03T20:36:54.230Z,43.10
2018-07-03T20:39:23.047Z,43.30
2018-07-03T20:41:51.811Z,43.40
2018-07-03T20:44:20.634Z,43.60
2018-07-03T20:46:49.398Z,43.60
2018-07-03T20:49:18.216Z,43.70
2018-07-03T20:51:46.972Z,44.00
2018-07-03T20:56:44.266Z,44.30
2018-07-03T20:59:13.052Z,44.50
2018-07-03T21:01:41.790Z,44.80
2018-07-03T21:04:10.769Z,45.20
2018-07-03T21:06:39.572Z,45.50
2018-07-03T21:09:09.043Z,45.80
2018-07-03T21:11:37.878Z,46.20
2018-07-03T21:14:06.754Z,46.80
2018-07-03T21:16:35.626Z,47.20
2018-07-03T21:19:04.622Z,47.70
2018-07-03T21:21:34.007Z,48.70
2018-07-03T21:24:03.032Z,49.50
2018-07-03T21:26:31.778Z,50.20
2018-07-03T21:29:00.638Z,50.80
2018-07-03T21:33:57.943Z,52.00
2018-07-03T21:36:26.711Z,52.40
2018-07-03T21:41:23.969Z,53.30
2018-07-03T21:43:52.827Z,53.60
2018-07-03T21:46:21.583Z,54.00
2018-07-03T21:48:50.387Z,55.00
2018-07-03T21:51:19.183Z,54.90
2018-07-03T21:53:47.969Z,55.20
2018-07-03T21:56:16.785Z,55.40
2018-07-03T21:58:45.590Z,55.70
2018-07-03T22:01:14.427Z,56.60
2018-07-03T22:03:43.248Z,56.60
2018-07-03T22:06:12.015Z,57.10
2018-07-03T22:08:40.771Z,57.70
2018-07-03T22:11:09.576Z,58.10
2018-07-03T22:13:38.369Z,58.10
2018-07-03T22:16:07.172Z,58.60
2018-07-03T22:18:35.954Z,58.50
2018-07-03T22:21:04.751Z,58.50
2018-07-03T22:23:33.498Z,59.30
2018-07-03T22:26:02.420Z,59.80
2018-07-03T22:28:31.184Z,60.10
2018-07-03T22:30:59.991Z,61.20
2018-07-03T22:33:28.793Z,60.80
2018-07-03T22:35:57.595Z,62.70
2018-07-03T22:38:26.374Z,63.60
2018-07-03T22:40:55.241Z,62.50
2018-07-03T22:43:24.024Z,63.50
2018-07-03T22:45:52.838Z,64.90
2018-07-03T22:48:21.615Z,64.80
2018-07-03T22:50:50.398Z,65.70
2018-07-03T22:53:19.286Z,66.50
2018-07-03T22:55:48.093Z,66.70
2018-07-03T22:58:16.885Z,67.80
2018-07-03T23:00:45.766Z,68.10
2018-07-03T23:03:14.543Z,69.90
2018-07-03T23:05:43.395Z,70.70
2018-07-03T23:08:12.259Z,70.90
2018-07-03T23:10:41.255Z,71.70
2018-07-03T23:13:10.008Z,73.00
2018-07-03T23:15:38.779Z,74.00
2018-07-03T23:18:07.613Z,74.50
2018-07-03T23:20:36.444Z,74.30
2018-07-03T23:23:05.378Z,76.10
2018-07-03T23:25:34.147Z,77.60
2018-07-03T23:28:02.890Z,78.80
2018-07-03T23:30:31.672Z,78.20
2018-07-03T23:33:00.435Z,78.90
2018-07-03T23:37:57.787Z,80.70
2018-07-03T23:40:26.602Z,81.80
2018-07-03T23:42:55.332Z,82.60
2018-07-03T23:45:27.681Z,83.70
2018-07-03T23:48:08.139Z,83.70
2018-07-03T23:50:48.432Z,84.60
2018-07-03T23:53:28.940Z,85.20
2018-07-03T23:56:09.271Z,87.50
2018-07-03T23:58:49.891Z,89.10
